Coral Topaz — 3ELB7 — position and weather

sailwx.info

Track history (hours):
 
Tides and Currents Weather Stations Pressure Air Temp Water Temp Dewpoint Dewpoint Depression Visibility Wind Speed Wind Dir Waves Ship Positions

Coral Topaz

Last reported at 2015-Apr-28 06:30 UTC. Time now 2015-May-24 21:25 UTC.
Position S 26°60' E 153°46'.
Warning: this ship's position is 26 days out of date.

Length 225 m; draft 12.7 m.

Type: Ship. MMSI: 372904000.

Date/timePositionNaut miles runAvg speedWind from/ knotsBaromVisibWave heightAir tempDewpointWater temp
2015-Apr-28 06:30S 26°60' E 153°46'33 8.3
2015-Apr-28 02:33S 27°32' E 153°41'1212.5
2015-Apr-28 01:33S 27°45' E 153°39'1312.8
2015-Apr-28 00:33S 27°57' E 153°41'1212.1
2015-Apr-27 23:33S 28°09' E 153°44'27110.7
2015-Apr-26 22:10S 32°34' E 152°35'813.0
2015-Apr-26 21:33S 32°40' E 152°28'1212.5
2015-Apr-26 20:33S 32°48' E 152°17'1111.4
2015-Apr-26 19:33S 32°56' E 152°08'8 8.1
2015-Apr-26 18:33S 32°59' E 151°59'9 8.7
2015-Apr-26 17:33S 32°55' E 151°49'4 3.6
2015-Apr-26 16:33S 32°53' E 151°46'0 0.1
2015-Apr-26 14:33S 32°53' E 151°45'0 0.0
2015-Apr-26 12:33S 32°53' E 151°45'0 0.0
2015-Apr-26 10:33S 32°53' E 151°45'0 0.0
2015-Apr-26 09:33S 32°53' E 151°45'0 0.0
2015-Apr-26 08:18S 32°53' E 151°45'0 0.0
2015-Apr-26 07:33S 32°53' E 151°45'0 0.0
2015-Apr-26 06:27S 32°53' E 151°45'0 0.0
2015-Apr-26 05:33S 32°53' E 151°45'0 0.0
2015-Apr-26 04:33S 32°53' E 151°45'0 0.0
2015-Apr-26 03:33S 32°53' E 151°45'0 0.1
2015-Apr-26 01:33S 32°53' E 151°45'3 2.6
2015-Apr-26 00:33S 32°55' E 151°47'7 6.8
2015-Apr-25 23:34S 32°59' E 151°54'6 6.2
2015-Apr-25 22:34S 33°03' E 151°60'7 6.7
2015-Apr-25 21:33S 33°07' E 152°07'2 2.1
2015-Apr-25 20:32S 33°05' E 152°05'2 1.8
2015-Apr-25 19:32S 33°03' E 152°04'2 1.7
2015-Apr-25 18:32S 33°02' E 152°03'2 1.6
2015-Apr-25 17:32S 33°02' E 152°01'2 1.7
2015-Apr-25 16:29S 33°04' E 151°59'2 2.0
2015-Apr-25 15:32S 33°04' E 151°57'4 4.4
2015-Apr-25 14:33S 33°01' E 151°54'7 7.2
2015-Apr-25 13:33S 33°01' E 152°03'7 6.5
2015-Apr-25 12:31S 33°00' E 152°11'0 0.3
2015-Apr-25 11:31S 33°00' E 152°11'1 1.0
2015-Apr-25 10:31S 33°00' E 152°12'1 0.7
2015-Apr-25 09:31S 33°00' E 152°13'1 1.2
2015-Apr-25 08:31S 33°00' E 152°14'1 1.2
2015-Apr-25 07:31S 33°01' E 152°16'1 0.7
2015-Apr-25 06:28S 33°01' E 152°16'1 0.5
2015-Apr-25 05:31S 33°02' E 152°16'1 0.7
2015-Apr-25 04:31S 33°02' E 152°16'1 0.7
2015-Apr-25 03:31S 33°03' E 152°16'1 0.8
2015-Apr-25 02:31S 33°03' E 152°15'1 0.8
2015-Apr-25 01:31S 33°04' E 152°14'1 0.8
2015-Apr-25 00:31S 33°05' E 152°14'1 0.7
2015-Apr-24 23:31S 33°05' E 152°13'0 0.5
2015-Apr-24 22:31S 33°05' E 152°13'1 0.7
2015-Apr-24 21:31S 33°06' E 152°12'1 0.8
2015-Apr-24 20:33S 33°07' E 152°12'6 6.3
2015-Apr-24 19:33S 33°13' E 152°10'7 7.1
2015-Apr-24 18:32S 33°16' E 152°02'0 0.5
2015-Apr-24 17:32S 33°16' E 152°01'1 0.8
2015-Apr-24 16:32S 33°16' E 152°00'1 0.9
2015-Apr-24 15:32S 33°17' E 151°60'1 0.8
2015-Apr-24 14:32S 33°18' E 151°59'1 0.5
2015-Apr-24 13:32S 33°18' E 151°59'0 0.0
2015-Apr-24 12:32S 33°18' E 151°59'0 0.3
2015-Apr-24 11:32S 33°18' E 151°59'0 0.2
2015-Apr-24 10:32S 33°18' E 151°59'1 1.4
2015-Apr-24 09:33S 33°18' E 151°58'9 0.9
2015-Apr-23 23:29S 33°21' E 151°47'0 0.5
2015-Apr-23 22:32S 33°21' E 151°48'1 0.7
2015-Apr-23 21:23S 33°20' E 151°48'1 0.9
2015-Apr-23 20:32S 33°20' E 151°49'1 1.0
2015-Apr-23 19:32S 33°21' E 151°50'1 0.8
2015-Apr-23 18:29S 33°21' E 151°51'1 0.7
2015-Apr-23 17:29S 33°21' E 151°52'2 1.3
2015-Apr-23 16:10S 33°20' E 151°52'4 6.0
2015-Apr-23 15:33S 33°16' E 151°54'9 9.1
2015-Apr-23 14:33S 33°09' E 152°01'8 8.1
2015-Apr-23 13:33S 33°03' E 152°06'2 1.5
2015-Apr-23 12:32S 33°04' E 152°07'1 1.4
2015-Apr-23 11:32S 33°05' E 152°07'1 1.2
2015-Apr-23 10:32S 33°06' E 152°08'1 0.7
2015-Apr-23 09:32S 33°07' E 152°08'1 0.8
2015-Apr-23 08:33S 33°07' E 152°08'6 5.7
2015-Apr-23 07:33S 33°02' E 152°05'1110.9
2015-Apr-23 06:33S 32°53' E 152°12'1111.3
2015-Apr-23 05:33S 32°45' E 152°22'6 5.8
2015-Apr-23 04:33S 32°41' E 152°27'2 1.8
2015-Apr-23 03:33S 32°42' E 152°28'2 1.7
2015-Apr-23 02:34S 32°43' E 152°29'1 0.8
2015-Apr-23 01:33S 32°44' E 152°29'4 3.5
2015-Apr-23 00:33S 32°41' E 152°28'5 4.7
2015-Apr-22 23:33S 32°43' E 152°23'2 1.6
2015-Apr-22 22:33S 32°45' E 152°22'2 1.8
2015-Apr-22 21:33S 32°46' E 152°22'1 1.3
2015-Apr-22 20:33S 32°48' E 152°21'1 0.8
2015-Apr-22 19:33S 32°48' E 152°21'1 0.7
2015-Apr-22 18:33S 32°49' E 152°21'1 0.7
2015-Apr-22 17:33S 32°50' E 152°20'1 0.6
2015-Apr-22 16:33S 32°50' E 152°20'0 0.5
2015-Apr-22 15:33S 32°51' E 152°20'0 0.5
2015-Apr-22 14:33S 32°51' E 152°20'1 0.6
2015-Apr-22 13:33S 32°52' E 152°20'0 0.5
2015-Apr-22 12:33S 32°52' E 152°20'1 0.6
2015-Apr-22 11:33S 32°53' E 152°20'1 1.2
2015-Apr-22 10:33S 32°54' E 152°20'5 4.9
2015-Apr-22 09:33S 32°58' E 152°24'5 5.1
2015-Apr-22 08:33S 33°02' E 152°27'6 5.3
2015-Apr-22 07:30S 33°07' E 152°31'4 4.0
2015-Apr-22 06:33S 33°03' E 152°33'7 7.1
2015-Apr-22 05:33S 32°56' E 152°34'6 6.1
2015-Apr-22 04:33S 32°50' E 152°36'5 4.6
2015-Apr-22 03:33S 32°46' E 152°38'5 5.3
2015-Apr-22 02:32S 32°41' E 152°39'7 7.4
2015-Apr-22 01:32S 32°34' E 152°41'8 8.2
2015-Apr-22 00:33S 32°26' E 152°43'25 1.7
2015-Apr-21 10:20S 32°01' E 152°48'6 2.7
2015-Apr-21 08:14S 32°07' E 152°47'24 5.1
2015-Apr-21 03:31S 32°31' E 152°46'1 1.4
2015-Apr-21 02:33S 32°32' E 152°45'4 3.5
2015-Apr-21 01:32S 32°34' E 152°49'5 5.3
2015-Apr-21 00:31S 32°39' E 152°48'5 5.5
2015-Apr-20 23:33S 32°44' E 152°46'4 4.1
2015-Apr-20 22:33S 32°48' E 152°46'2 2.1
2015-Apr-20 21:33S 32°50' E 152°44'3 3.2
2015-Apr-20 20:29S 32°47' E 152°41'0 0.3
2015-Apr-20 19:33S 32°47' E 152°40'0 0.5
2015-Apr-20 18:29S 32°47' E 152°40'1 0.9
2015-Apr-20 17:33S 32°46' E 152°40'2 2.1
2015-Apr-20 16:33S 32°45' E 152°41'3 3.3
2015-Apr-20 15:33S 32°48' E 152°39'4 3.6
2015-Apr-20 14:33S 32°45' E 152°36'4 3.6
2015-Apr-20 13:33S 32°43' E 152°32'5 5.1
2015-Apr-20 12:33S 32°48' E 152°29'7 6.9
2015-Apr-20 11:33S 32°53' E 152°23'4 3.9
2015-Apr-20 10:34S 32°56' E 152°22'3 3.0
2015-Apr-20 09:33S 32°59' E 152°21'3 3.0
2015-Apr-20 08:33S 33°02' E 152°22'2 2.0
2015-Apr-20 07:33S 33°04' E 152°22'4 3.5
2015-Apr-20 06:33S 33°02' E 152°19'4 3.9
2015-Apr-20 05:33S 32°58' E 152°17'3 2.5
2015-Apr-20 04:33S 33°01' E 152°18'3 2.5
2015-Apr-20 03:33S 33°03' E 152°19'3 3.5
2015-Apr-20 02:33S 33°06' E 152°16'7 6.6
2015-Apr-20 01:33S 33°12' E 152°14'3 0.7
2015-Apr-19 20:32S 33°14' E 152°11'8 1.5
2015-Apr-19 15:13S 33°20' E 152°04'5 6.0
2015-Apr-19 14:27S 33°18' E 151°60'5 2.1
2015-Apr-19 12:15S 33°21' E 151°57'15 0.7
2015-Apr-18 13:31S 33°18' E 151°39'0 0.0
2015-Apr-18 12:31S 33°18' E 151°39'0 0.0
2015-Apr-18 11:31S 33°18' E 151°39'0 0.0
2015-Apr-18 10:31S 33°18' E 151°39'3 1.7
2015-Apr-18 08:33S 33°22' E 151°38'1212.1
2015-Apr-18 07:33S 33°15' E 151°51'2 1.5
2015-Apr-18 06:32S 33°15' E 151°53'  
Track history (hours):
 
Tides and Currents Weather Stations Pressure Air Temp Water Temp Dewpoint Dewpoint Depression Visibility Wind Speed Wind Dir Waves Ship Positions

Coral Topaz

Last reported at 2015-Apr-28 06:30 UTC. Time now 2015-May-24 21:25 UTC.
Position S 26°60' E 153°46'.
Warning: this ship's position is 26 days out of date.

Length 225 m; draft 12.7 m.

Type: Ship. MMSI: 372904000.

Date/timePositionNaut miles runAvg speedWind from/ knotsBaromVisibWave heightAir tempDewpointWater temp
2015-Apr-28 06:30S 26°60' E 153°46'33 8.3
2015-Apr-28 02:33S 27°32' E 153°41'1212.5
2015-Apr-28 01:33S 27°45' E 153°39'1312.8
2015-Apr-28 00:33S 27°57' E 153°41'1212.1
2015-Apr-27 23:33S 28°09' E 153°44'27110.7
2015-Apr-26 22:10S 32°34' E 152°35'813.0
2015-Apr-26 21:33S 32°40' E 152°28'1212.5
2015-Apr-26 20:33S 32°48' E 152°17'1111.4
2015-Apr-26 19:33S 32°56' E 152°08'8 8.1
2015-Apr-26 18:33S 32°59' E 151°59'9 8.7
2015-Apr-26 17:33S 32°55' E 151°49'4 3.6
2015-Apr-26 16:33S 32°53' E 151°46'0 0.1
2015-Apr-26 14:33S 32°53' E 151°45'0 0.0
2015-Apr-26 12:33S 32°53' E 151°45'0 0.0
2015-Apr-26 10:33S 32°53' E 151°45'0 0.0
2015-Apr-26 09:33S 32°53' E 151°45'0 0.0
2015-Apr-26 08:18S 32°53' E 151°45'0 0.0
2015-Apr-26 07:33S 32°53' E 151°45'0 0.0
2015-Apr-26 06:27S 32°53' E 151°45'0 0.0
2015-Apr-26 05:33S 32°53' E 151°45'0 0.0
2015-Apr-26 04:33S 32°53' E 151°45'0 0.0
2015-Apr-26 03:33S 32°53' E 151°45'0 0.1
2015-Apr-26 01:33S 32°53' E 151°45'3 2.6
2015-Apr-26 00:33S 32°55' E 151°47'7 6.8
2015-Apr-25 23:34S 32°59' E 151°54'6 6.2
2015-Apr-25 22:34S 33°03' E 151°60'7 6.7
2015-Apr-25 21:33S 33°07' E 152°07'2 2.1
2015-Apr-25 20:32S 33°05' E 152°05'2 1.8
2015-Apr-25 19:32S 33°03' E 152°04'2 1.7
2015-Apr-25 18:32S 33°02' E 152°03'2 1.6
2015-Apr-25 17:32S 33°02' E 152°01'2 1.7
2015-Apr-25 16:29S 33°04' E 151°59'2 2.0
2015-Apr-25 15:32S 33°04' E 151°57'4 4.4
2015-Apr-25 14:33S 33°01' E 151°54'7 7.2
2015-Apr-25 13:33S 33°01' E 152°03'7 6.5
2015-Apr-25 12:31S 33°00' E 152°11'0 0.3
2015-Apr-25 11:31S 33°00' E 152°11'1 1.0
2015-Apr-25 10:31S 33°00' E 152°12'1 0.7
2015-Apr-25 09:31S 33°00' E 152°13'1 1.2
2015-Apr-25 08:31S 33°00' E 152°14'1 1.2
2015-Apr-25 07:31S 33°01' E 152°16'1 0.7
2015-Apr-25 06:28S 33°01' E 152°16'1 0.5
2015-Apr-25 05:31S 33°02' E 152°16'1 0.7
2015-Apr-25 04:31S 33°02' E 152°16'1 0.7
2015-Apr-25 03:31S 33°03' E 152°16'1 0.8
2015-Apr-25 02:31S 33°03' E 152°15'1 0.8
2015-Apr-25 01:31S 33°04' E 152°14'1 0.8
2015-Apr-25 00:31S 33°05' E 152°14'1 0.7
2015-Apr-24 23:31S 33°05' E 152°13'0 0.5
2015-Apr-24 22:31S 33°05' E 152°13'1 0.7
2015-Apr-24 21:31S 33°06' E 152°12'1 0.8
2015-Apr-24 20:33S 33°07' E 152°12'6 6.3
2015-Apr-24 19:33S 33°13' E 152°10'7 7.1
2015-Apr-24 18:32S 33°16' E 152°02'0 0.5
2015-Apr-24 17:32S 33°16' E 152°01'1 0.8
2015-Apr-24 16:32S 33°16' E 152°00'1 0.9
2015-Apr-24 15:32S 33°17' E 151°60'1 0.8
2015-Apr-24 14:32S 33°18' E 151°59'1 0.5
2015-Apr-24 13:32S 33°18' E 151°59'0 0.0
2015-Apr-24 12:32S 33°18' E 151°59'0 0.3
2015-Apr-24 11:32S 33°18' E 151°59'0 0.2
2015-Apr-24 10:32S 33°18' E 151°59'1 1.4
2015-Apr-24 09:33S 33°18' E 151°58'9 0.9
2015-Apr-23 23:29S 33°21' E 151°47'0 0.5
2015-Apr-23 22:32S 33°21' E 151°48'1 0.7
2015-Apr-23 21:23S 33°20' E 151°48'1 0.9
2015-Apr-23 20:32S 33°20' E 151°49'1 1.0
2015-Apr-23 19:32S 33°21' E 151°50'1 0.8
2015-Apr-23 18:29S 33°21' E 151°51'1 0.7
2015-Apr-23 17:29S 33°21' E 151°52'2 1.3
2015-Apr-23 16:10S 33°20' E 151°52'4 6.0
2015-Apr-23 15:33S 33°16' E 151°54'9 9.1
2015-Apr-23 14:33S 33°09' E 152°01'8 8.1
2015-Apr-23 13:33S 33°03' E 152°06'2 1.5
2015-Apr-23 12:32S 33°04' E 152°07'1 1.4
2015-Apr-23 11:32S 33°05' E 152°07'1 1.2
2015-Apr-23 10:32S 33°06' E 152°08'1 0.7
2015-Apr-23 09:32S 33°07' E 152°08'1 0.8
2015-Apr-23 08:33S 33°07' E 152°08'6 5.7
2015-Apr-23 07:33S 33°02' E 152°05'1110.9
2015-Apr-23 06:33S 32°53' E 152°12'1111.3
2015-Apr-23 05:33S 32°45' E 152°22'6 5.8
2015-Apr-23 04:33S 32°41' E 152°27'2 1.8
2015-Apr-23 03:33S 32°42' E 152°28'2 1.7
2015-Apr-23 02:34S 32°43' E 152°29'1 0.8
2015-Apr-23 01:33S 32°44' E 152°29'4 3.5
2015-Apr-23 00:33S 32°41' E 152°28'5 4.7
2015-Apr-22 23:33S 32°43' E 152°23'2 1.6
2015-Apr-22 22:33S 32°45' E 152°22'2 1.8
2015-Apr-22 21:33S 32°46' E 152°22'1 1.3
2015-Apr-22 20:33S 32°48' E 152°21'1 0.8
2015-Apr-22 19:33S 32°48' E 152°21'1 0.7
2015-Apr-22 18:33S 32°49' E 152°21'1 0.7
2015-Apr-22 17:33S 32°50' E 152°20'1 0.6
2015-Apr-22 16:33S 32°50' E 152°20'0 0.5
2015-Apr-22 15:33S 32°51' E 152°20'0 0.5
2015-Apr-22 14:33S 32°51' E 152°20'1 0.6
2015-Apr-22 13:33S 32°52' E 152°20'0 0.5
2015-Apr-22 12:33S 32°52' E 152°20'1 0.6
2015-Apr-22 11:33S 32°53' E 152°20'1 1.2
2015-Apr-22 10:33S 32°54' E 152°20'5 4.9
2015-Apr-22 09:33S 32°58' E 152°24'5 5.1
2015-Apr-22 08:33S 33°02' E 152°27'6 5.3
2015-Apr-22 07:30S 33°07' E 152°31'4 4.0
2015-Apr-22 06:33S 33°03' E 152°33'7 7.1
2015-Apr-22 05:33S 32°56' E 152°34'6 6.1
2015-Apr-22 04:33S 32°50' E 152°36'5 4.6
2015-Apr-22 03:33S 32°46' E 152°38'5 5.3
2015-Apr-22 02:32S 32°41' E 152°39'7 7.4
2015-Apr-22 01:32S 32°34' E 152°41'8 8.2
2015-Apr-22 00:33S 32°26' E 152°43'25 1.7
2015-Apr-21 10:20S 32°01' E 152°48'6 2.7
2015-Apr-21 08:14S 32°07' E 152°47'24 5.1
2015-Apr-21 03:31S 32°31' E 152°46'1 1.4
2015-Apr-21 02:33S 32°32' E 152°45'4 3.5
2015-Apr-21 01:32S 32°34' E 152°49'5 5.3
2015-Apr-21 00:31S 32°39' E 152°48'5 5.5
2015-Apr-20 23:33S 32°44' E 152°46'4 4.1
2015-Apr-20 22:33S 32°48' E 152°46'2 2.1
2015-Apr-20 21:33S 32°50' E 152°44'3 3.2
2015-Apr-20 20:29S 32°47' E 152°41'0 0.3
2015-Apr-20 19:33S 32°47' E 152°40'0 0.5
2015-Apr-20 18:29S 32°47' E 152°40'1 0.9
2015-Apr-20 17:33S 32°46' E 152°40'2 2.1
2015-Apr-20 16:33S 32°45' E 152°41'3 3.3
2015-Apr-20 15:33S 32°48' E 152°39'4 3.6
2015-Apr-20 14:33S 32°45' E 152°36'4 3.6
2015-Apr-20 13:33S 32°43' E 152°32'5 5.1
2015-Apr-20 12:33S 32°48' E 152°29'7 6.9
2015-Apr-20 11:33S 32°53' E 152°23'4 3.9
2015-Apr-20 10:34S 32°56' E 152°22'3 3.0
2015-Apr-20 09:33S 32°59' E 152°21'3 3.0
2015-Apr-20 08:33S 33°02' E 152°22'2 2.0
2015-Apr-20 07:33S 33°04' E 152°22'4 3.5
2015-Apr-20 06:33S 33°02' E 152°19'4 3.9
2015-Apr-20 05:33S 32°58' E 152°17'3 2.5
2015-Apr-20 04:33S 33°01' E 152°18'3 2.5
2015-Apr-20 03:33S 33°03' E 152°19'3 3.5
2015-Apr-20 02:33S 33°06' E 152°16'7 6.6
2015-Apr-20 01:33S 33°12' E 152°14'3 0.7
2015-Apr-19 20:32S 33°14' E 152°11'8 1.5
2015-Apr-19 15:13S 33°20' E 152°04'5 6.0
2015-Apr-19 14:27S 33°18' E 151°60'5 2.1
2015-Apr-19 12:15S 33°21' E 151°57'15 0.7
2015-Apr-18 13:31S 33°18' E 151°39'0 0.0
2015-Apr-18 12:31S 33°18' E 151°39'0 0.0
2015-Apr-18 11:31S 33°18' E 151°39'0 0.0
2015-Apr-18 10:31S 33°18' E 151°39'3 1.7
2015-Apr-18 08:33S 33°22' E 151°38'1212.1
2015-Apr-18 07:33S 33°15' E 151°51'2 1.5
2015-Apr-18 06:32S 33°15' E 151°53'  

Dump ship's entire track history